Time;durP1;ratioP1;P1;durP2;ratioP2;P2;SDS_P1;SDS_P2;PMS_P1;PMS_P2;Temp;Humidity;BMP_temperature;BMP_pressure;BME280_temperature;BME280_humidity;BME280_pressure;Samples;Min_cycle;Max_cycle;Signal;HPM_P1;HPM_P2
2022/03/27 00:01:51;;;;;;;26.73;9.52;;;;;;;;;;4897849;28;20374;-79
2022/03/27 00:04:16;;;;;;;29.83;10.32;;;;;;;;;;4898076;28;20034;-77
2022/03/27 00:06:44;;;;;;;29.88;12.30;;;;;;;;;;4897772;28;20747;-78
2022/03/27 00:09:09;;;;;;;25.38;10.20;;;;;;;;;;4894856;28;21906;-78
2022/03/27 00:11:37;;;;;;;28.88;10.05;;;;;;;;;;4896453;28;20026;-79
2022/03/27 00:14:05;;;;;;;28.45;9.85;;;;;;;;;;4896049;28;20489;-78
2022/03/27 00:16:32;;;;;;;30.50;10.88;;;;;;;;;;4896331;28;20183;-78
2022/03/27 00:19:00;;;;;;;29.55;10.32;;;;;;;;;;4897360;28;20049;-79
2022/03/27 00:21:26;;;;;;;32.95;10.80;;;;;;;;;;4898785;28;20073;-78
2022/03/27 00:23:53;;;;;;;29.13;10.13;;;;;;;;;;4895453;28;20441;-78
2022/03/27 00:26:21;;;;;;;27.27;10.13;;;;;;;;;;4910052;28;20052;-79
2022/03/27 00:28:48;;;;;;;32.70;10.48;;;;;;;;;;4910553;28;20046;-79
2022/03/27 00:31:16;;;;;;;30.10;9.25;;;;;;;;;;4891769;28;20136;-78
2022/03/27 00:33:43;;;;;;;30.13;10.50;;;;;;;;;;4894026;28;20726;-78
2022/03/27 00:36:13;;;;;;;31.08;11.45;;;;;;;;;;4892963;28;20042;-78
2022/03/27 00:38:39;;;;;;;25.35;9.07;;;;;;;;;;4896088;28;20678;-78
2022/03/27 00:41:08;;;;;;;30.77;11.25;;;;;;;;;;4893698;28;20049;-78
2022/03/27 00:43:34;;;;;;;24.58;10.05;;;;;;;;;;4891241;28;20076;-78
2022/03/27 00:45:59;;;;;;;22.05;8.85;;;;;;;;;;4888153;28;21229;-78
2022/03/27 00:48:25;;;;;;;23.20;8.23;;;;;;;;;;4894232;28;21259;-79
2022/03/27 00:50:52;;;;;;;20.60;8.23;;;;;;;;;;4908290;28;20038;-77
2022/03/27 00:53:19;;;;;;;26.90;8.80;;;;;;;;;;4890388;28;20042;-78
2022/03/27 00:55:45;;;;;;;25.25;8.13;;;;;;;;;;4888109;28;20049;-78
2022/03/27 00:58:12;;;;;;;22.70;8.80;;;;;;;;;;4890714;28;20467;-78
2022/03/27 01:00:41;;;;;;;23.05;8.68;;;;;;;;;;4889783;28;21438;-79
2022/03/27 01:03:12;;;;;;;29.73;9.57;;;;;;;;;;4899538;28;20112;-79
2022/03/27 01:05:45;;;;;;;25.70;8.45;;;;;;;;;;4891163;28;20165;-78
2022/03/27 01:08:12;;;;;;;26.27;8.82;;;;;;;;;;4896134;28;20050;-78
2022/03/27 01:10:39;;;;;;;30.05;9.40;;;;;;;;;;4894371;28;20846;-77
2022/03/27 01:13:09;;;;;;;24.73;9.15;;;;;;;;;;4907163;28;20038;-78
2022/03/27 01:15:41;;;;;;;26.08;9.02;;;;;;;;;;4909290;28;21691;-80
2022/03/27 01:18:08;;;;;;;23.10;8.25;;;;;;;;;;4895092;28;21840;-78
2022/03/27 01:20:35;;;;;;;26.45;9.30;;;;;;;;;;4899256;28;20190;-78
2022/03/27 01:23:06;;;;;;;26.23;9.02;;;;;;;;;;4897328;28;20053;-78
2022/03/27 01:25:31;;;;;;;27.17;9.70;;;;;;;;;;4899383;28;20042;-78
2022/03/27 01:27:57;;;;;;;26.83;9.90;;;;;;;;;;4916741;28;20042;-78
2022/03/27 01:30:22;;;;;;;26.73;10.50;;;;;;;;;;4900719;28;20042;-78
2022/03/27 01:32:51;;;;;;;25.52;9.15;;;;;;;;;;4888616;28;20046;-79
2022/03/27 01:35:18;;;;;;;21.80;8.35;;;;;;;;;;4898420;28;21638;-79
2022/03/27 01:37:44;;;;;;;26.83;9.85;;;;;;;;;;4897603;28;20045;-78
2022/03/27 01:40:10;;;;;;;25.85;9.45;;;;;;;;;;4897327;28;21368;-78
2022/03/27 01:42:35;;;;;;;30.00;9.80;;;;;;;;;;4907046;28;20152;-79
2022/03/27 01:45:01;;;;;;;23.08;9.20;;;;;;;;;;4905491;28;20030;-79
2022/03/27 01:47:28;;;;;;;27.75;9.02;;;;;;;;;;4904729;28;20034;-79
2022/03/27 01:49:56;;;;;;;28.63;9.50;;;;;;;;;;4896159;28;20725;-78
2022/03/27 01:52:22;;;;;;;31.67;9.70;;;;;;;;;;4899055;28;20034;-77
2022/03/27 01:54:47;;;;;;;26.77;8.43;;;;;;;;;;4911867;28;20042;-81
2022/03/27 01:57:13;;;;;;;21.30;9.00;;;;;;;;;;4896999;28;20153;-79
2022/03/27 01:59:39;;;;;;;26.05;8.73;;;;;;;;;;4897329;28;20041;-78
2022/03/27 02:02:05;;;;;;;21.40;8.82;;;;;;;;;;4897535;28;20030;-78
2022/03/27 02:04:30;;;;;;;25.27;9.32;;;;;;;;;;4897458;28;20060;-79
2022/03/27 02:06:56;;;;;;;28.42;9.13;;;;;;;;;;4894592;28;20645;-79
2022/03/27 02:09:21;;;;;;;27.35;10.10;;;;;;;;;;4899037;28;20042;-78
2022/03/27 02:11:47;;;;;;;23.30;8.32;;;;;;;;;;4895986;28;20041;-79
2022/03/27 02:14:15;;;;;;;29.65;10.10;;;;;;;;;;4922101;28;20734;-79
2022/03/27 02:16:41;;;;;;;28.25;9.68;;;;;;;;;;4899623;28;20062;-79
2022/03/27 02:19:09;;;;;;;22.55;9.68;;;;;;;;;;4913097;28;20046;-78
2022/03/27 02:21:36;;;;;;;27.45;9.52;;;;;;;;;;4894840;28;20081;-79
2022/03/27 02:24:04;;;;;;;27.85;9.73;;;;;;;;;;4898978;28;20708;-79
2022/03/27 02:26:33;;;;;;;25.80;9.98;;;;;;;;;;4894794;28;20041;-78
2022/03/27 02:29:01;;;;;;;37.08;10.75;;;;;;;;;;4892895;28;20994;-78
2022/03/27 02:31:27;;;;;;;30.15;10.50;;;;;;;;;;4894766;28;20042;-78
2022/03/27 02:33:53;;;;;;;35.55;10.57;;;;;;;;;;4894361;28;20128;-78
2022/03/27 02:36:19;;;;;;;26.20;9.70;;;;;;;;;;4901890;28;20139;-79
2022/03/27 02:38:47;;;;;;;26.50;10.48;;;;;;;;;;4897727;28;20070;-78
2022/03/27 02:41:12;;;;;;;31.10;10.00;;;;;;;;;;4893574;28;20693;-78
2022/03/27 02:43:38;;;;;;;27.13;10.38;;;;;;;;;;4905270;28;20308;-79
2022/03/27 02:46:07;;;;;;;28.88;9.73;;;;;;;;;;4903154;28;20049;-79
2022/03/27 02:48:33;;;;;;;29.80;10.23;;;;;;;;;;4900594;28;20034;-78
2022/03/27 02:50:59;;;;;;;24.48;10.63;;;;;;;;;;4902011;28;20116;-79
2022/03/27 02:53:24;;;;;;;29.70;10.25;;;;;;;;;;4902457;28;20228;-79
2022/03/27 02:55:52;;;;;;;33.80;10.02;;;;;;;;;;4919309;28;20550;-80
2022/03/27 02:58:18;;;;;;;27.52;9.90;;;;;;;;;;4896561;28;20069;-78
2022/03/27 03:00:44;;;;;;;28.10;10.63;;;;;;;;;;4895106;28;20902;-78
2022/03/27 03:03:10;;;;;;;33.47;10.60;;;;;;;;;;4897112;28;20038;-79
2022/03/27 03:05:40;;;;;;;29.70;11.18;;;;;;;;;;4895105;28;20157;-78
2022/03/27 03:08:11;;;;;;;40.13;11.75;;;;;;;;;;4898538;28;20678;-79
2022/03/27 03:10:40;;;;;;;30.17;10.57;;;;;;;;;;4896939;28;20089;-79
2022/03/27 03:13:08;;;;;;;27.33;10.68;;;;;;;;;;4900306;28;20846;-78
2022/03/27 03:15:35;;;;;;;27.60;10.15;;;;;;;;;;4900237;28;21711;-79
2022/03/27 03:18:05;;;;;;;27.00;9.63;;;;;;;;;;4916847;28;20995;-78
2022/03/27 03:20:31;;;;;;;;;;;;;;;;;;4896138;28;20042;-78
2022/03/27 03:22:57;;;;;;;30.77;9.75;;;;;;;;;;4896778;28;19928;-78
2022/03/27 03:25:23;;;;;;;27.98;10.57;;;;;;;;;;4893854;28;20487;-78
2022/03/27 03:27:49;;;;;;;32.35;9.88;;;;;;;;;;4893003;28;20045;-77
2022/03/27 03:30:16;;;;;;;27.83;9.88;;;;;;;;;;4893438;28;20042;-78
2022/03/27 03:32:42;;;;;;;30.13;10.82;;;;;;;;;;4896134;28;20780;-79
2022/03/27 03:35:11;;;;;;;27.23;10.52;;;;;;;;;;4894507;28;20045;-78
2022/03/27 03:37:40;;;;;;;31.05;11.30;;;;;;;;;;4896154;28;20999;-80
2022/03/27 03:40:09;;;;;;;29.13;10.35;;;;;;;;;;4895492;28;20046;-78
2022/03/27 03:42:35;;;;;;;27.88;11.30;;;;;;;;;;4896122;28;21018;-78
2022/03/27 03:45:02;;;;;;;24.65;10.10;;;;;;;;;;4891930;28;20582;-78
2022/03/27 03:47:28;;;;;;;26.50;10.13;;;;;;;;;;4900731;28;21768;-80
2022/03/27 03:49:53;;;;;;;26.52;10.50;;;;;;;;;;4894068;28;20085;-79
2022/03/27 03:52:21;;;;;;;26.20;9.75;;;;;;;;;;4895983;28;20046;-78
2022/03/27 03:54:49;;;;;;;23.45;9.60;;;;;;;;;;4895672;28;20878;-79
2022/03/27 03:57:15;;;;;;;25.90;9.82;;;;;;;;;;4899222;28;20038;-78
2022/03/27 03:59:41;;;;;;;31.83;9.82;;;;;;;;;;4900178;28;20356;-79
2022/03/27 04:02:08;;;;;;;20.52;9.32;;;;;;;;;;4904046;28;20260;-79
2022/03/27 04:04:35;;;;;;;26.40;9.68;;;;;;;;;;4893470;28;20034;-80
2022/03/27 04:07:01;;;;;;;31.60;10.95;;;;;;;;;;4886180;28;20088;-79
2022/03/27 04:09:28;;;;;;;29.90;10.25;;;;;;;;;;4902209;28;20072;-79
2022/03/27 04:11:53;;;;;;;29.63;10.75;;;;;;;;;;4904632;28;21350;-79
2022/03/27 04:14:19;;;;;;;29.02;10.50;;;;;;;;;;4903442;28;21586;-78
2022/03/27 04:16:45;;;;;;;26.05;10.35;;;;;;;;;;4893641;28;20161;-79
2022/03/27 04:19:12;;;;;;;28.67;9.45;;;;;;;;;;4912893;28;21155;-79
2022/03/27 04:21:40;;;;;;;33.55;9.95;;;;;;;;;;4898436;28;20048;-79
2022/03/27 04:24:07;;;;;;;21.08;9.13;;;;;;;;;;4896881;28;20931;-79
2022/03/27 04:26:33;;;;;;;26.15;9.23;;;;;;;;;;4897978;28;20701;-79
2022/03/27 04:28:59;;;;;;;25.02;9.88;;;;;;;;;;4893376;28;20044;-79
2022/03/27 04:31:25;;;;;;;25.42;9.90;;;;;;;;;;4887064;28;20053;-78
2022/03/27 04:33:50;;;;;;;28.13;10.15;;;;;;;;;;4896700;28;20638;-78
2022/03/27 04:36:16;;;;;;;23.33;9.55;;;;;;;;;;4894414;28;20038;-78
2022/03/27 04:38:41;;;;;;;29.35;9.65;;;;;;;;;;4900856;28;20038;-79
2022/03/27 04:41:07;;;;;;;23.42;9.60;;;;;;;;;;4897258;28;20033;-78
2022/03/27 04:43:35;;;;;;;27.52;9.52;;;;;;;;;;4896529;28;20061;-77
2022/03/27 04:46:00;;;;;;;25.00;9.57;;;;;;;;;;4902731;28;20046;-78
2022/03/27 04:48:29;;;;;;;27.77;10.00;;;;;;;;;;4895049;28;20119;-79
2022/03/27 04:50:57;;;;;;;24.98;9.73;;;;;;;;;;4910688;28;20087;-78
2022/03/27 04:53:28;;;;;;;27.52;9.85;;;;;;;;;;4902504;28;20078;-79
2022/03/27 04:55:54;;;;;;;29.92;10.20;;;;;;;;;;4898709;28;20030;-79
2022/03/27 04:58:20;;;;;;;26.95;9.90;;;;;;;;;;4899341;28;22403;-79
2022/03/27 05:00:45;;;;;;;24.63;8.95;;;;;;;;;;4896848;28;20759;-80
2022/03/27 05:03:11;;;;;;;22.33;9.07;;;;;;;;;;4916114;28;20100;-79
2022/03/27 05:05:38;;;;;;;26.70;10.18;;;;;;;;;;4911789;28;20034;-80
2022/03/27 05:08:11;;;;;;;25.55;9.55;;;;;;;;;;4913934;28;20179;-79
2022/03/27 05:10:41;;;;;;;26.52;10.98;;;;;;;;;;4896501;28;21192;-77
2022/03/27 05:13:07;;;;;;;;;;;;;;;;;;4889966;28;20049;-77
2022/03/27 05:15:35;;;;;;;28.80;8.77;;;;;;;;;;4887668;28;21117;-78
2022/03/27 05:18:01;;;;;;;30.08;8.98;;;;;;;;;;4887213;28;20043;-77
2022/03/27 05:20:28;;;;;;;28.48;8.98;;;;;;;;;;4902989;28;20049;-76
2022/03/27 05:22:55;;;;;;;22.00;9.25;;;;;;;;;;4886054;28;20038;-77
2022/03/27 05:25:23;;;;;;;27.55;10.18;;;;;;;;;;4890620;28;20514;-77
2022/03/27 05:27:50;;;;;;;25.27;9.93;;;;;;;;;;4888196;28;20635;-77
2022/03/27 05:30:18;;;;;;;25.60;10.00;;;;;;;;;;4884521;28;20132;-77
2022/03/27 05:32:46;;;;;;;25.08;8.98;;;;;;;;;;4904630;28;20149;-76
2022/03/27 05:35:15;;;;;;;27.27;9.23;;;;;;;;;;4887579;28;20049;-77
2022/03/27 05:37:42;;;;;;;27.65;9.45;;;;;;;;;;4885063;28;20722;-76
2022/03/27 05:40:11;;;;;;;26.58;10.20;;;;;;;;;;4894035;28;20080;-76
2022/03/27 05:42:37;;;;;;;25.98;10.00;;;;;;;;;;4891677;28;20092;-77
2022/03/27 05:45:09;;;;;;;30.40;10.48;;;;;;;;;;4887958;28;20049;-77
2022/03/27 05:47:37;;;;;;;28.10;12.20;;;;;;;;;;4887774;28;20042;-76
2022/03/27 05:50:04;;;;;;;25.48;8.90;;;;;;;;;;4900842;28;20049;-76
2022/03/27 05:52:32;;;;;;;26.60;8.90;;;;;;;;;;4888693;28;20042;-76
2022/03/27 05:54:57;;;;;;;24.48;9.43;;;;;;;;;;4883595;28;20046;-77
2022/03/27 05:57:26;;;;;;;26.50;9.85;;;;;;;;;;4894430;28;20053;-76
2022/03/27 05:59:53;;;;;;;30.30;10.77;;;;;;;;;;4903997;28;20740;-77
2022/03/27 06:02:19;;;;;;;23.15;9.50;;;;;;;;;;4889762;28;20041;-77
2022/03/27 06:04:45;;;;;;;26.00;10.57;;;;;;;;;;4890880;28;20034;-77
2022/03/27 06:07:11;;;;;;;27.33;9.50;;;;;;;;;;4881337;28;21526;-77
2022/03/27 06:09:36;;;;;;;29.48;9.88;;;;;;;;;;4908647;28;21139;-76
2022/03/27 06:12:03;;;;;;;29.35;11.25;;;;;;;;;;4894938;28;20053;-76
2022/03/27 06:14:32;;;;;;;35.28;10.63;;;;;;;;;;4892635;28;20122;-77
2022/03/27 06:16:58;;;;;;;25.00;9.95;;;;;;;;;;4892496;28;20681;-76
2022/03/27 06:19:23;;;;;;;28.33;10.30;;;;;;;;;;4890865;28;20034;-76
2022/03/27 06:21:49;;;;;;;30.40;10.88;;;;;;;;;;4909843;28;20030;-77
2022/03/27 06:24:17;;;;;;;30.50;10.60;;;;;;;;;;4910894;28;20045;-76
2022/03/27 06:26:42;;;;;;;31.25;11.75;;;;;;;;;;4892643;28;20045;-76
2022/03/27 06:29:14;;;;;;;32.42;11.13;;;;;;;;;;4892264;28;20748;-77
2022/03/27 06:31:42;;;;;;;33.67;11.02;;;;;;;;;;4899021;28;20230;-77
2022/03/27 06:34:07;;;;;;;26.58;10.77;;;;;;;;;;4890940;28;20097;-77
2022/03/27 06:36:36;;;;;;;28.30;12.32;;;;;;;;;;4888767;28;20034;-76
2022/03/27 06:39:03;;;;;;;43.60;13.50;;;;;;;;;;4893137;28;20041;-76
2022/03/27 06:41:29;;;;;;;35.50;10.88;;;;;;;;;;4891202;28;20788;-76
2022/03/27 06:43:55;;;;;;;27.88;10.65;;;;;;;;;;4894639;28;20100;-79
2022/03/27 06:46:20;;;;;;;33.72;11.18;;;;;;;;;;4896008;28;20034;-78
2022/03/27 06:48:48;;;;;;;31.30;12.20;;;;;;;;;;4898050;28;20132;-78
2022/03/27 06:51:14;;;;;;;32.58;11.55;;;;;;;;;;4893841;28;20038;-77
2022/03/27 06:53:41;;;;;;;30.48;11.93;;;;;;;;;;4911478;28;21338;-78
2022/03/27 06:56:07;;;;;;;35.95;14.27;;;;;;;;;;4895298;28;20180;-78
2022/03/27 06:58:33;;;;;;;32.45;13.25;;;;;;;;;;4909757;28;20034;-77
2022/03/27 07:03:43;;;;;;;34.92;13.00;;;;;;;;;;4893329;28;20049;-77
2022/03/27 07:06:09;;;;;;;39.78;15.30;;;;;;;;;;4892345;28;20042;-77
2022/03/27 07:08:37;;;;;;;37.90;13.63;;;;;;;;;;4895364;28;20649;-77
2022/03/27 07:11:03;;;;;;;38.55;15.27;;;;;;;;;;4903711;28;20069;-78
2022/03/27 07:13:30;;;;;;;41.03;14.93;;;;;;;;;;4923096;28;21378;-77
2022/03/27 07:15:56;;;;;;;35.63;15.35;;;;;;;;;;4893042;28;20204;-77
2022/03/27 07:18:22;;;;;;;35.25;14.18;;;;;;;;;;4894318;28;21802;-77
2022/03/27 07:20:47;;;;;;;35.67;15.02;;;;;;;;;;4891123;28;20113;-77
2022/03/27 07:23:20;;;;;;;37.58;15.10;;;;;;;;;;4891833;28;20300;-77
2022/03/27 07:25:50;;;;;;;31.50;14.40;;;;;;;;;;4894411;28;20034;-77
2022/03/27 07:28:18;;;;;;;37.15;15.35;;;;;;;;;;4890558;28;20034;-76
2022/03/27 07:30:45;;;;;;;39.45;14.85;;;;;;;;;;4891158;28;20038;-76
2022/03/27 07:33:12;;;;;;;40.17;16.00;;;;;;;;;;4890446;28;20046;-76
2022/03/27 07:35:40;;;;;;;46.75;16.67;;;;;;;;;;4892063;28;20201;-78
2022/03/27 07:38:08;;;;;;;39.78;15.45;;;;;;;;;;4890620;28;21244;-77
2022/03/27 07:40:35;;;;;;;45.53;16.80;;;;;;;;;;4905017;28;20077;-76
2022/03/27 07:43:00;;;;;;;40.10;16.25;;;;;;;;;;4904477;28;20034;-76
2022/03/27 07:45:29;;;;;;;37.17;15.63;;;;;;;;;;4889995;28;20085;-76
2022/03/27 07:47:55;;;;;;;44.28;15.68;;;;;;;;;;4882350;28;21576;-77
2022/03/27 07:50:22;;;;;;;50.20;18.63;;;;;;;;;;4889916;28;20034;-76
2022/03/27 07:52:48;;;;;;;49.20;17.70;;;;;;;;;;4893593;28;20034;-76
2022/03/27 07:55:20;;;;;;;44.30;17.08;;;;;;;;;;4893553;28;20085;-76
2022/03/27 07:57:46;;;;;;;43.80;16.30;;;;;;;;;;4894916;28;20626;-76
2022/03/27 08:00:13;;;;;;;41.85;14.80;;;;;;;;;;4896196;28;20029;-76
2022/03/27 08:02:40;;;;;;;45.10;16.88;;;;;;;;;;4891516;28;20034;-76
2022/03/27 08:05:06;;;;;;;37.05;14.40;;;;;;;;;;4893292;28;20053;-78
2022/03/27 08:07:32;;;;;;;41.15;15.10;;;;;;;;;;4888286;28;20045;-78
2022/03/27 08:09:58;;;;;;;39.83;14.60;;;;;;;;;;4894194;28;20156;-78
2022/03/27 08:12:24;;;;;;;38.15;16.08;;;;;;;;;;4894223;28;20034;-78
2022/03/27 08:14:50;;;;;;;42.42;15.45;;;;;;;;;;4892134;28;20042;-77
2022/03/27 08:17:20;;;;;;;37.22;14.60;;;;;;;;;;4910695;28;20116;-77
2022/03/27 08:19:47;;;;;;;31.25;10.55;;;;;;;;;;4905769;28;20192;-75
2022/03/27 08:22:14;;;;;;;32.85;10.45;;;;;;;;;;4911274;28;20361;-75
2022/03/27 08:24:40;;;;;;;26.73;11.48;;;;;;;;;;4903171;28;20646;-75
2022/03/27 08:27:07;;;;;;;42.28;14.13;;;;;;;;;;4906351;28;20126;-76
2022/03/27 08:29:39;;;;;;;42.95;15.00;;;;;;;;;;4928836;28;20152;-76
2022/03/27 08:32:12;;;;;;;41.72;16.00;;;;;;;;;;4907134;28;20759;-76
2022/03/27 08:34:39;;;;;;;43.55;16.35;;;;;;;;;;4908130;28;20049;-76
2022/03/27 08:37:08;;;;;;;39.92;16.15;;;;;;;;;;4895088;28;20069;-76
2022/03/27 08:39:33;;;;;;;50.80;18.23;;;;;;;;;;4893855;28;20038;-77
2022/03/27 08:41:59;;;;;;;43.72;16.98;;;;;;;;;;4895553;28;20221;-77
2022/03/27 08:44:26;;;;;;;49.08;18.13;;;;;;;;;;4894755;28;20040;-77
2022/03/27 08:46:53;;;;;;;50.35;18.05;;;;;;;;;;4892487;28;20042;-77
2022/03/27 08:49:35;;;;;;;48.40;19.63;;;;;;;;;;4895388;28;20164;-77
2022/03/27 08:52:01;;;;;;;51.95;19.48;;;;;;;;;;4897532;28;20499;-76
2022/03/27 08:55:03;;;;;;;48.22;18.38;;;;;;;;;;4896155;28;20817;-76
2022/03/27 08:57:31;;;;;;;58.53;19.88;;;;;;;;;;4894742;28;21259;-76
2022/03/27 08:59:57;;;;;;;44.55;19.08;;;;;;;;;;4892844;28;20046;-76
2022/03/27 09:02:24;;;;;;;58.00;20.90;;;;;;;;;;4892754;28;20151;-76
2022/03/27 09:04:56;;;;;;;48.90;19.15;;;;;;;;;;4897345;28;20497;-76
2022/03/27 09:07:28;;;;;;;47.35;19.85;;;;;;;;;;4910616;28;20050;-76
2022/03/27 09:09:54;;;;;;;48.22;19.85;;;;;;;;;;4899963;28;21442;-77
2022/03/27 09:12:21;;;;;;;53.50;20.77;;;;;;;;;;4899659;28;20582;-77
2022/03/27 09:14:47;;;;;;;53.92;20.33;;;;;;;;;;4900729;28;20092;-77
2022/03/27 09:17:14;;;;;;;42.67;18.40;;;;;;;;;;4901114;28;20042;-77
2022/03/27 09:19:51;;;;;;;29.40;13.10;;;;;;;;;;4911701;28;20046;-76
2022/03/27 09:22:17;;;;;;;29.35;12.80;;;;;;;;;;4893215;28;20070;-76
2022/03/27 09:24:47;;;;;;;41.65;15.95;;;;;;;;;;4889270;28;21181;-76
2022/03/27 09:27:16;;;;;;;34.42;14.35;;;;;;;;;;4891829;28;20633;-75
2022/03/27 09:30:06;;;;;;;36.78;14.60;;;;;;;;;;4884784;28;20038;-75
2022/03/27 09:32:43;;;;;;;45.42;15.65;;;;;;;;;;4891718;28;20045;-76
2022/03/27 09:35:11;;;;;;;43.28;15.48;;;;;;;;;;4890908;28;20060;-76
2022/03/27 09:37:39;;;;;;;38.78;15.90;;;;;;;;;;4890934;28;20038;-76
2022/03/27 09:40:06;;;;;;;36.38;14.43;;;;;;;;;;4897551;28;20183;-76
2022/03/27 09:42:36;;;;;;;34.42;14.82;;;;;;;;;;4910315;28;20591;-76
2022/03/27 09:45:14;;;;;;;35.70;14.60;;;;;;;;;;4910071;28;21928;-75
2022/03/27 09:47:43;;;;;;;36.08;16.13;;;;;;;;;;4895918;28;20080;-76
2022/03/27 09:50:37;;;;;;;33.87;15.07;;;;;;;;;;4892462;28;20517;-76
2022/03/27 09:53:20;;;;;;;34.17;15.30;;;;;;;;;;4891359;28;20893;-76
2022/03/27 09:55:50;;;;;;;36.17;15.02;;;;;;;;;;4895932;28;20045;-76
2022/03/27 09:58:16;;;;;;;32.40;15.10;;;;;;;;;;4899410;28;20120;-76
2022/03/27 10:00:42;;;;;;;36.58;15.57;;;;;;;;;;4899546;28;20030;-76
2022/03/27 10:03:10;;;;;;;42.40;16.65;;;;;;;;;;4897305;28;20035;-75
2022/03/27 10:05:36;;;;;;;35.28;14.80;;;;;;;;;;4915128;28;20030;-75
2022/03/27 10:08:02;;;;;;;33.50;15.13;;;;;;;;;;4906306;28;20213;-76
2022/03/27 10:10:28;;;;;;;39.65;17.25;;;;;;;;;;4900569;28;20730;-77
2022/03/27 10:12:58;;;;;;;47.22;17.27;;;;;;;;;;4897651;28;20749;-77
2022/03/27 10:15:29;;;;;;;37.50;16.65;;;;;;;;;;4896840;28;20145;-76
2022/03/27 10:18:01;;;;;;;37.92;16.63;;;;;;;;;;4896294;28;20275;-76
2022/03/27 10:20:34;;;;;;;35.90;14.27;;;;;;;;;;4891879;28;20065;-76
2022/03/27 10:23:07;;;;;;;32.75;14.38;;;;;;;;;;4890841;28;20046;-77
2022/03/27 10:25:44;;;;;;;32.83;14.30;;;;;;;;;;4888876;28;20111;-76
2022/03/27 10:28:09;;;;;;;38.85;16.40;;;;;;;;;;4898812;28;20144;-76
2022/03/27 10:30:35;;;;;;;41.78;21.92;;;;;;;;;;4890542;28;20156;-76
2022/03/27 10:33:01;;;;;;;43.55;17.08;;;;;;;;;;4895494;28;21215;-76
2022/03/27 10:36:01;;;;;;;41.63;20.70;;;;;;;;;;4906152;28;20654;-76
2022/03/27 10:38:45;;;;;;;;;;;;;;;;;;4896205;28;20631;-76
2022/03/27 10:41:13;;;;;;;36.10;17.90;;;;;;;;;;4890604;28;19922;-76
2022/03/27 10:44:05;;;;;;;45.05;16.08;;;;;;;;;;4896953;28;20100;-76
2022/03/27 10:46:34;;;;;;;38.20;16.65;;;;;;;;;;4907756;28;20104;-76
2022/03/27 10:49:16;;;;;;;38.13;17.27;;;;;;;;;;4891748;28;20833;-77
2022/03/27 10:51:45;;;;;;;39.05;16.98;;;;;;;;;;4889853;28;20057;-75
2022/03/27 10:54:18;;;;;;;38.20;16.30;;;;;;;;;;4892624;28;20401;-76
2022/03/27 10:56:54;;;;;;;31.98;14.82;;;;;;;;;;4890251;28;20301;-76
2022/03/27 10:59:26;;;;;;;37.20;16.67;;;;;;;;;;4889740;28;20169;-77
2022/03/27 11:01:52;;;;;;;39.40;15.98;;;;;;;;;;4902712;28;21576;-76
2022/03/27 11:04:25;;;;;;;34.78;14.93;;;;;;;;;;4891085;28;20513;-76
2022/03/27 11:07:16;;;;;;;37.88;15.50;;;;;;;;;;4891033;28;20835;-76
2022/03/27 11:09:45;;;;;;;32.47;13.73;;;;;;;;;;4903429;28;20528;-76
2022/03/27 11:12:24;;;;;;;37.83;15.43;;;;;;;;;;4889401;28;20054;-76
2022/03/27 11:14:52;;;;;;;32.37;13.47;;;;;;;;;;4887640;28;20045;-77
2022/03/27 11:17:30;;;;;;;29.60;13.70;;;;;;;;;;4893152;28;20046;-76
2022/03/27 11:19:59;;;;;;;33.78;13.57;;;;;;;;;;4885688;28;20293;-75
2022/03/27 11:22:47;;;;;;;30.77;13.18;;;;;;;;;;4886088;28;21389;-75
2022/03/27 11:25:31;;;;;;;37.07;14.13;;;;;;;;;;4896918;28;20726;-76
2022/03/27 11:28:08;;;;;;;32.90;13.13;;;;;;;;;;4899649;28;20042;-76
2022/03/27 11:30:37;;;;;;;36.40;12.38;;;;;;;;;;4899031;28;20046;-76
2022/03/27 11:33:15;;;;;;;27.90;12.63;;;;;;;;;;4895050;28;20661;-76
2022/03/27 11:35:42;;;;;;;33.90;13.27;;;;;;;;;;4903495;28;20061;-76
2022/03/27 11:38:25;;;;;;;26.23;11.95;;;;;;;;;;4899121;28;20564;-76
2022/03/27 11:40:51;;;;;;;25.48;12.70;;;;;;;;;;4897068;28;20731;-76
2022/03/27 11:43:29;;;;;;;27.60;11.80;;;;;;;;;;4897463;28;20455;-76
2022/03/27 11:45:56;;;;;;;28.67;13.43;;;;;;;;;;4885950;28;20604;-77
2022/03/27 11:48:22;;;;;;;31.98;12.65;;;;;;;;;;4900749;28;20293;-76
2022/03/27 11:50:51;;;;;;;31.75;11.90;;;;;;;;;;4888464;28;20661;-77
2022/03/27 11:53:16;;;;;;;26.80;11.80;;;;;;;;;;4882890;28;20030;-77
2022/03/27 11:55:42;;;;;;;31.50;11.90;;;;;;;;;;4886229;28;20215;-76
2022/03/27 11:58:10;;;;;;;28.83;12.88;;;;;;;;;;4890078;28;20052;-76
2022/03/27 12:00:37;;;;;;;26.10;12.18;;;;;;;;;;4890578;28;20038;-75
2022/03/27 12:03:12;;;;;;;26.23;10.70;;;;;;;;;;4893005;28;20056;-75
2022/03/27 12:05:40;;;;;;;28.77;11.93;;;;;;;;;;4888644;28;20038;-75
2022/03/27 12:08:07;;;;;;;28.97;11.60;;;;;;;;;;4893647;28;20746;-75
2022/03/27 12:11:04;;;;;;;26.67;11.90;;;;;;;;;;4898897;28;20169;-75
2022/03/27 12:13:38;;;;;;;26.80;11.88;;;;;;;;;;4891898;28;20046;-75
2022/03/27 12:16:04;;;;;;;32.28;12.57;;;;;;;;;;4901529;28;20486;-75
2022/03/27 12:18:33;;;;;;;22.05;11.15;;;;;;;;;;4895908;28;20038;-75
2022/03/27 12:21:06;;;;;;;24.95;11.65;;;;;;;;;;4897496;28;20443;-75
2022/03/27 12:23:46;;;;;;;22.98;10.55;;;;;;;;;;4913129;28;20196;-75
2022/03/27 12:32:28;;;;;;;28.60;9.90;;;;;;;;;;4891159;28;20674;-75
2022/03/27 12:35:00;;;;;;;27.30;11.48;;;;;;;;;;4892279;28;20038;-74
2022/03/27 12:37:31;;;;;;;25.25;11.10;;;;;;;;;;4896512;28;20161;-75
2022/03/27 12:39:56;;;;;;;27.25;10.57;;;;;;;;;;4897220;28;21393;-75
2022/03/27 12:42:37;;;;;;;24.70;10.40;;;;;;;;;;4888557;28;20030;-75
2022/03/27 12:45:25;;;;;;;23.50;11.02;;;;;;;;;;4891171;28;20149;-75
2022/03/27 12:47:54;;;;;;;25.35;10.13;;;;;;;;;;4903817;28;20069;-75
2022/03/27 12:50:25;;;;;;;23.95;10.80;;;;;;;;;;4896320;28;20065;-74
2022/03/27 12:53:03;;;;;;;22.45;10.50;;;;;;;;;;4896065;28;20291;-75
2022/03/27 12:55:42;;;;;;;28.15;10.65;;;;;;;;;;4894363;28;20053;-74
2022/03/27 12:58:08;;;;;;;24.75;10.70;;;;;;;;;;4914059;28;20034;-76
2022/03/27 13:00:40;;;;;;;23.65;10.60;;;;;;;;;;4897194;28;20167;-74
2022/03/27 13:03:24;;;;;;;23.83;9.63;;;;;;;;;;4900027;28;20737;-75
2022/03/27 13:05:56;;;;;;;24.02;10.75;;;;;;;;;;4894733;28;20034;-74
2022/03/27 13:08:30;;;;;;;22.80;10.15;;;;;;;;;;4892278;28;20038;-74
2022/03/27 13:11:00;;;;;;;21.25;9.95;;;;;;;;;;4895304;28;20256;-75
2022/03/27 13:13:36;;;;;;;25.80;10.95;;;;;;;;;;4895616;28;20743;-76
2022/03/27 13:16:27;;;;;;;24.38;10.45;;;;;;;;;;4897794;28;20041;-74
2022/03/27 13:19:00;;;;;;;20.52;9.30;;;;;;;;;;4897639;28;20030;-75
2022/03/27 13:21:36;;;;;;;27.85;11.27;;;;;;;;;;4900054;28;20045;-75
2022/03/27 13:24:05;;;;;;;25.48;11.23;;;;;;;;;;4899140;28;22020;-75
2022/03/27 13:26:32;;;;;;;24.20;11.00;;;;;;;;;;4894529;28;20046;-74
2022/03/27 13:29:00;;;;;;;19.35;10.35;;;;;;;;;;4895938;28;21186;-74
2022/03/27 13:31:26;;;;;;;30.65;11.50;;;;;;;;;;4892056;28;20038;-74
2022/03/27 13:33:52;;;;;;;23.17;10.82;;;;;;;;;;4895036;28;20547;-74
2022/03/27 13:36:20;;;;;;;24.00;11.27;;;;;;;;;;4894509;28;20089;-74
2022/03/27 13:38:46;;;;;;;25.40;10.75;;;;;;;;;;4891979;28;22032;-74
2022/03/27 13:43:56;;;;;;;20.48;9.13;;;;;;;;;;4893156;28;20765;-75
2022/03/27 13:46:23;;;;;;;24.00;11.27;;;;;;;;;;4904920;28;20034;-75
2022/03/27 13:48:51;;;;;;;24.35;9.95;;;;;;;;;;4887925;28;20760;-74
2022/03/27 13:51:17;;;;;;;22.55;10.07;;;;;;;;;;4886088;28;22795;-74
2022/03/27 13:53:45;;;;;;;25.45;10.73;;;;;;;;;;4888391;28;20042;-74
2022/03/27 13:56:13;;;;;;;22.87;10.70;;;;;;;;;;4884646;28;22061;-74
2022/03/27 13:58:39;;;;;;;20.83;9.53;;;;;;;;;;4889278;28;20236;-74
2022/03/27 14:01:04;;;;;;;26.38;10.85;;;;;;;;;;4892349;28;20038;-74
2022/03/27 14:03:30;;;;;;;21.67;10.10;;;;;;;;;;4891097;28;20454;-75
2022/03/27 14:05:57;;;;;;;26.88;10.30;;;;;;;;;;4890740;28;20034;-74
2022/03/27 14:08:23;;;;;;;25.75;10.68;;;;;;;;;;4892069;28;21471;-74
2022/03/27 14:10:49;;;;;;;21.58;9.50;;;;;;;;;;4890610;28;20657;-74
2022/03/27 14:13:17;;;;;;;23.95;10.50;;;;;;;;;;4892745;28;20038;-75
2022/03/27 14:15:45;;;;;;;23.85;10.55;;;;;;;;;;4891477;28;21789;-74
2022/03/27 14:18:11;;;;;;;22.73;11.00;;;;;;;;;;4893048;28;20041;-75
2022/03/27 14:20:36;;;;;;;21.05;10.35;;;;;;;;;;4896204;28;20041;-74
2022/03/27 14:23:02;;;;;;;27.80;10.77;;;;;;;;;;4912361;28;20699;-73
2022/03/27 14:25:28;;;;;;;21.65;10.95;;;;;;;;;;4894950;28;20752;-74
2022/03/27 14:27:56;;;;;;;22.00;10.60;;;;;;;;;;4909444;28;20038;-74
2022/03/27 14:30:21;;;;;;;21.07;9.97;;;;;;;;;;4895358;28;20042;-75
2022/03/27 14:32:50;;;;;;;24.98;10.20;;;;;;;;;;4894035;28;20814;-74
2022/03/27 14:35:17;;;;;;;21.90;9.90;;;;;;;;;;4894152;28;20754;-74
2022/03/27 14:37:43;;;;;;;20.92;10.20;;;;;;;;;;4896001;28;20065;-74
2022/03/27 14:40:17;;;;;;;20.20;10.18;;;;;;;;;;4897186;28;20042;-73
2022/03/27 14:42:43;;;;;;;23.08;10.50;;;;;;;;;;4898267;28;20049;-74